Time;durP1;ratioP1;P1;durP2;ratioP2;P2;SDS_P1;SDS_P2;PMS_P1;PMS_P2;Temp;Humidity;BMP_temperature;BMP_pressure;BME280_temperature;BME280_humidity;BME280_pressure;Samples;Min_cycle;Max_cycle;Signal;HPM_P1;HPM_P2
2023/07/16 00:02:14;;;;;;;3.78;1.80;;;23.60;83.40;;;;;;5111636;28;20395;-83
2023/07/16 00:04:40;;;;;;;4.47;1.90;;;23.60;83.30;;;;;;5093639;28;20024;-83
2023/07/16 00:07:05;;;;;;;6.53;1.65;;;23.60;82.60;;;;;;5111423;28;20015;-83
2023/07/16 00:09:31;;;;;;;6.65;1.67;;;23.70;82.10;;;;;;5093298;28;20126;-85
2023/07/16 00:11:57;;;;;;;5.78;1.60;;;23.70;82.50;;;;;;5112565;28;20028;-84
2023/07/16 00:14:23;;;;;;;4.25;1.73;;;23.70;82.00;;;;;;5093942;28;20034;-84
2023/07/16 00:16:48;;;;;;;5.53;1.38;;;23.70;82.00;;;;;;5112301;28;20034;-83
2023/07/16 00:19:14;;;;;;;11.48;2.08;;;23.70;82.60;;;;;;5094034;28;20027;-84
2023/07/16 00:21:40;;;;;;;6.82;1.88;;;23.60;82.30;;;;;;5111831;28;20020;-84
2023/07/16 00:24:06;;;;;;;4.75;1.70;;;23.60;81.70;;;;;;5114563;28;20026;-84
2023/07/16 00:26:32;;;;;;;3.63;0.98;;;23.60;81.80;;;;;;5115106;28;20028;-83
2023/07/16 00:28:57;;;;;;;5.05;1.83;;;23.50;81.80;;;;;;5115450;28;20031;-84
2023/07/16 00:31:23;;;;;;;3.30;1.58;;;23.50;81.40;;;;;;5115009;28;20035;-83
2023/07/16 00:33:49;;;;;;;6.50;1.00;;;23.50;81.30;;;;;;5115305;28;20399;-84
2023/07/16 00:36:14;;;;;;;10.48;1.50;;;23.40;81.30;;;;;;5115396;28;20016;-83
2023/07/16 00:38:41;;;;;;;6.95;1.75;;;23.50;81.30;;;;;;5115757;28;20484;-84
2023/07/16 00:41:06;;;;;;;5.20;1.80;;;23.50;81.50;;;;;;5097217;28;20031;-83
2023/07/16 00:43:32;;;;;;;8.82;2.03;;;23.60;80.90;;;;;;5097455;28;20032;-84
2023/07/16 00:45:58;;;;;;;2.15;1.30;;;23.50;80.70;;;;;;5115000;28;20023;-84
2023/07/16 00:48:24;;;;;;;7.63;1.75;;;23.50;80.60;;;;;;5114658;28;20028;-83
2023/07/16 00:50:52;;;;;;;4.20;1.60;;;23.50;80.50;;;;;;5097162;28;20040;-84
2023/07/16 00:53:19;;;;;;;5.80;1.95;;;23.40;80.60;;;;;;5097164;28;20061;-84
2023/07/16 00:55:45;;;;;;;4.20;1.60;;;23.40;81.10;;;;;;5097023;28;20027;-84
2023/07/16 00:58:11;;;;;;;10.65;2.58;;;23.30;81.40;;;;;;5115134;28;20073;-84
2023/07/16 01:00:38;;;;;;;8.05;1.60;;;23.20;81.60;;;;;;5115467;28;20484;-82
2023/07/16 01:03:14;;;;;;;6.00;1.27;;;23.20;82.00;;;;;;5115503;28;20023;-84
2023/07/16 01:05:54;;;;;;;;;;;23.20;81.80;;;;;;5115722;28;20027;-83
2023/07/16 01:08:40;;;;;;;5.85;1.20;;;23.10;82.00;;;;;;5115430;28;19957;-85
2023/07/16 01:11:07;;;;;;;3.72;1.63;;;23.10;81.90;;;;;;5095935;28;20122;-84
2023/07/16 01:13:34;;;;;;;4.60;1.52;;;23.10;81.80;;;;;;5096131;28;20377;-83
2023/07/16 01:16:00;;;;;;;5.50;1.80;;;23.10;81.80;;;;;;5096807;28;20027;-85
2023/07/16 01:18:25;;;;;;;8.05;1.48;;;23.00;82.20;;;;;;5096693;28;20020;-84
2023/07/16 01:20:51;;;;;;;3.58;1.90;;;23.00;82.10;;;;;;5096050;28;20027;-84
2023/07/16 01:23:35;;;;;;;2.80;1.40;;;23.00;82.50;;;;;;5115032;28;20059;-84
2023/07/16 01:26:47;;;;;;;4.05;1.67;;;22.90;82.70;;;;;;5096352;28;20023;-83
2023/07/16 01:29:36;;;;;;;12.73;2.95;;;22.80;86.50;;;;;;5095983;28;20092;-84
2023/07/16 01:32:04;;;;;;;4.00;1.67;;;22.70;88.80;;;;;;5113384;28;20038;-82
2023/07/16 01:34:33;;;;;;;10.02;1.60;;;22.50;89.50;;;;;;5095018;28;20369;-83
2023/07/16 01:37:03;;;;;;;2.72;1.48;;;22.30;90.10;;;;;;5095990;28;20077;-83
2023/07/16 01:39:30;;;;;;;3.13;1.35;;;22.10;90.80;;;;;;5114107;28;20034;-81
2023/07/16 01:41:56;;;;;;;3.08;1.52;;;22.00;91.20;;;;;;5113929;28;20012;-82
2023/07/16 01:44:22;;;;;;;2.53;1.30;;;21.90;91.80;;;;;;5113988;28;20035;-83
2023/07/16 01:47:12;;;;;;;3.60;1.50;;;21.90;92.20;;;;;;5096047;28;20399;-84
2023/07/16 01:49:39;;;;;;;7.75;1.60;;;21.80;92.70;;;;;;5113789;28;20039;-82
2023/07/16 01:52:06;;;;;;;5.78;1.40;;;21.70;93.00;;;;;;5113501;28;20054;-82
2023/07/16 01:54:32;;;;;;;5.40;1.40;;;21.70;93.20;;;;;;5095808;28;20102;-83
2023/07/16 01:56:58;;;;;;;6.90;3.28;;;21.70;92.80;;;;;;5114234;28;20536;-83
2023/07/16 01:59:24;;;;;;;5.80;1.85;;;21.70;93.30;;;;;;5113925;28;20081;-83
2023/07/16 02:01:50;;;;;;;3.05;1.55;;;21.70;93.40;;;;;;5095641;28;20023;-83
2023/07/16 02:04:15;;;;;;;4.45;1.40;;;21.60;93.10;;;;;;5095637;28;20026;-83
2023/07/16 02:06:41;;;;;;;2.78;1.55;;;21.70;92.60;;;;;;5113550;28;20102;-83
2023/07/16 02:09:06;;;;;;;3.83;1.50;;;21.70;92.60;;;;;;5095630;28;20061;-83
2023/07/16 02:11:32;;;;;;;6.55;1.80;;;21.70;92.60;;;;;;5113504;28;20039;-84
2023/07/16 02:13:58;;;;;;;2.92;1.52;;;21.70;92.50;;;;;;5113521;28;20023;-84
2023/07/16 02:16:23;;;;;;;5.57;0.90;;;21.70;92.50;;;;;;5095150;28;20032;-82
2023/07/16 02:18:49;;;;;;;6.82;1.33;;;21.70;92.80;;;;;;5095480;28;20035;-84
2023/07/16 02:21:14;;;;;;;8.02;2.08;;;21.70;93.00;;;;;;5113253;28;20035;-83
2023/07/16 02:23:40;;;;;;;3.58;1.60;;;21.60;93.60;;;;;;5113065;28;20034;-84
2023/07/16 02:26:06;;;;;;;6.35;1.60;;;21.60;93.50;;;;;;5113183;28;20027;-84
2023/07/16 02:28:31;;;;;;;4.93;1.50;;;21.50;93.70;;;;;;5112706;28;20027;-83
2023/07/16 02:30:58;;;;;;;2.80;1.08;;;21.50;93.60;;;;;;5112678;28;20047;-84
2023/07/16 02:33:24;;;;;;;4.22;1.70;;;21.50;93.70;;;;;;5113245;28;20418;-84
2023/07/16 02:35:51;;;;;;;2.72;1.42;;;21.50;93.40;;;;;;5113350;28;20027;-84
2023/07/16 02:38:17;;;;;;;4.90;1.75;;;21.50;93.40;;;;;;5113258;28;20055;-84
2023/07/16 02:40:48;;;;;;;4.45;1.77;;;21.50;93.70;;;;;;5094993;28;20067;-83
2023/07/16 02:43:14;;;;;;;3.03;1.40;;;21.50;94.20;;;;;;5113260;28;20368;-83
2023/07/16 02:45:40;;;;;;;4.55;1.58;;;21.40;94.60;;;;;;5094200;28;20031;-83
2023/07/16 02:48:07;;;;;;;3.30;1.30;;;21.40;94.80;;;;;;5112907;28;20026;-83
2023/07/16 02:50:37;;;;;;;3.40;1.40;;;21.30;95.00;;;;;;5112497;28;20035;-83
2023/07/16 02:53:05;;;;;;;3.90;1.75;;;21.30;95.50;;;;;;5094856;28;20076;-84
2023/07/16 02:55:31;;;;;;;3.17;1.20;;;21.30;95.40;;;;;;5094778;28;20028;-84
2023/07/16 02:57:57;;;;;;;2.88;1.23;;;21.20;95.20;;;;;;5112321;28;20032;-84
2023/07/16 03:00:23;;;;;;;2.58;1.33;;;21.20;95.10;;;;;;5112171;28;20502;-84
2023/07/16 03:02:49;;;;;;;2.65;1.40;;;21.20;94.90;;;;;;5112899;28;20019;-83
2023/07/16 03:05:18;;;;;;;2.88;1.33;;;21.30;94.60;;;;;;5094843;28;20024;-83
2023/07/16 03:07:44;;;;;;;3.03;1.50;;;21.30;94.50;;;;;;5112526;28;20481;-83
2023/07/16 03:10:09;;;;;;;6.22;1.48;;;21.30;94.50;;;;;;5094288;28;20150;-83
2023/07/16 03:12:35;;;;;;;2.35;1.27;;;21.30;94.30;;;;;;5112628;28;20012;-83
2023/07/16 03:15:01;;;;;;;9.50;1.67;;;21.30;94.20;;;;;;5094436;28;20035;-84
2023/07/16 03:17:26;;;;;;;3.90;1.67;;;21.30;94.50;;;;;;5112546;28;20094;-84
2023/07/16 03:19:52;;;;;;;3.60;1.63;;;21.40;95.00;;;;;;5094284;28;20126;-83
2023/07/16 03:22:18;;;;;;;3.05;1.20;;;21.40;94.20;;;;;;5112289;28;20027;-83
2023/07/16 03:24:43;;;;;;;5.57;1.45;;;21.40;93.70;;;;;;5112304;28;20035;-84
2023/07/16 03:27:09;;;;;;;6.30;1.85;;;21.50;93.40;;;;;;5094229;28;20030;-84
2023/07/16 03:29:35;;;;;;;7.82;1.55;;;21.60;93.10;;;;;;5093966;28;20051;-84
2023/07/16 03:32:01;;;;;;;6.97;0.98;;;21.60;92.80;;;;;;5112598;28;20063;-84
2023/07/16 03:34:26;;;;;;;6.55;1.38;;;21.70;92.80;;;;;;5094139;28;20051;-84
2023/07/16 03:36:52;;;;;;;6.55;2.53;;;21.70;93.00;;;;;;5112538;28;20065;-84
2023/07/16 03:39:18;;;;;;;4.50;2.38;;;21.70;93.00;;;;;;5094270;28;20078;-84
2023/07/16 03:41:43;;;;;;;4.50;1.98;;;21.80;93.30;;;;;;5094160;28;20395;-84
2023/07/16 03:44:10;;;;;;;4.75;2.17;;;21.70;93.10;;;;;;5094055;28;20445;-84
2023/07/16 03:46:35;;;;;;;3.15;1.50;;;21.80;93.10;;;;;;5112487;28;20055;-84
2023/07/16 03:49:01;;;;;;;5.07;1.92;;;21.80;93.20;;;;;;5112273;28;20043;-83
2023/07/16 03:51:27;;;;;;;4.63;1.75;;;21.80;93.40;;;;;;5094054;28;20043;-84
2023/07/16 03:53:52;;;;;;;4.05;1.65;;;21.80;93.30;;;;;;5111980;28;20024;-83
2023/07/16 03:56:18;;;;;;;3.05;1.60;;;21.80;93.40;;;;;;5112070;28;20427;-85
2023/07/16 03:58:43;;;;;;;5.88;1.50;;;21.90;93.50;;;;;;5115881;28;20372;-85
2023/07/16 04:01:09;;;;;;;5.70;1.60;;;21.90;93.50;;;;;;5116244;28;20436;-84
2023/07/16 04:03:35;;;;;;;6.47;1.60;;;22.00;93.30;;;;;;5116161;28;20050;-84
2023/07/16 04:06:05;;;;;;;5.85;1.35;;;22.10;93.30;;;;;;5097900;28;20028;-83
2023/07/16 04:08:31;;;;;;;4.70;1.30;;;22.20;93.20;;;;;;5116362;28;20023;-83
2023/07/16 04:10:56;;;;;;;4.00;1.23;;;22.40;92.80;;;;;;5097598;28;20038;-84
2023/07/16 04:13:22;;;;;;;2.72;1.35;;;22.60;92.30;;;;;;5116280;28;20112;-84
2023/07/16 04:15:48;;;;;;;3.88;1.60;;;22.80;92.00;;;;;;5097991;28;20038;-83
2023/07/16 04:18:14;;;;;;;6.22;1.90;;;23.00;91.70;;;;;;5097243;28;20026;-84
2023/07/16 04:20:39;;;;;;;2.90;1.52;;;23.10;90.90;;;;;;5114818;28;20034;-82
2023/07/16 04:23:05;;;;;;;5.13;1.80;;;23.20;91.50;;;;;;5097399;28;20022;-84
2023/07/16 04:25:30;;;;;;;4.18;1.50;;;23.20;90.90;;;;;;5097676;28;20122;-84
2023/07/16 04:27:57;;;;;;;3.53;1.58;;;23.30;90.30;;;;;;5115679;28;20024;-83
2023/07/16 04:30:22;;;;;;;4.03;1.92;;;23.30;90.40;;;;;;5115484;28;20055;-83
2023/07/16 04:32:48;;;;;;;8.80;1.50;;;23.40;90.20;;;;;;5115670;28;20069;-84
2023/07/16 04:35:14;;;;;;;3.55;1.35;;;23.60;89.50;;;;;;5097798;28;20028;-84
2023/07/16 04:37:39;;;;;;;4.95;1.52;;;23.70;89.00;;;;;;5115618;28;20027;-83
2023/07/16 04:40:06;;;;;;;4.32;1.58;;;23.80;87.40;;;;;;5115615;28;20023;-84
2023/07/16 04:42:31;;;;;;;3.75;1.73;;;23.90;86.70;;;;;;5114144;28;20496;-84
2023/07/16 04:44:57;;;;;;;3.97;1.60;;;24.00;87.90;;;;;;5115235;28;20039;-84
2023/07/16 04:47:23;;;;;;;6.70;2.58;;;24.10;86.50;;;;;;5115519;28;20016;-84
2023/07/16 04:49:48;;;;;;;10.10;1.60;;;24.10;86.50;;;;;;5097385;28;20403;-84
2023/07/16 04:52:14;;;;;;;4.70;1.45;;;24.20;85.90;;;;;;5115340;28;20572;-84
2023/07/16 04:54:39;;;;;;;9.80;2.38;;;24.30;85.00;;;;;;5115317;28;20442;-84
2023/07/16 04:57:08;;;;;;;5.20;1.27;;;24.30;85.20;;;;;;5096816;28;20027;-84
2023/07/16 04:59:34;;;;;;;8.85;1.73;;;24.30;86.30;;;;;;5097220;28;20024;-83
2023/07/16 05:02:04;;;;;;;3.80;2.00;;;24.50;87.30;;;;;;5097067;28;20054;-84
2023/07/16 05:04:30;;;;;;;3.13;1.10;;;24.50;87.10;;;;;;5097014;28;20019;-85
2023/07/16 05:06:55;;;;;;;4.70;2.42;;;24.60;87.40;;;;;;5115315;28;20053;-84
2023/07/16 05:09:21;;;;;;;6.03;1.42;;;24.70;87.10;;;;;;5096138;28;20027;-83
2023/07/16 05:11:47;;;;;;;3.75;1.70;;;24.80;86.70;;;;;;5115074;28;20036;-82
2023/07/16 05:14:12;;;;;;;3.90;1.80;;;24.90;86.40;;;;;;5115063;28;20506;-85
2023/07/16 05:16:38;;;;;;;6.43;1.98;;;25.00;85.70;;;;;;5097047;28;20038;-84
2023/07/16 05:19:04;;;;;;;4.30;1.83;;;25.10;85.60;;;;;;5096778;28;20046;-84
2023/07/16 05:21:29;;;;;;;5.43;1.80;;;25.20;84.20;;;;;;5096502;28;20031;-82
2023/07/16 05:23:55;;;;;;;5.72;1.77;;;25.40;83.40;;;;;;5114896;28;20051;-84
2023/07/16 05:26:20;;;;;;;9.75;2.08;;;25.60;81.50;;;;;;5096481;28;20088;-84
2023/07/16 05:28:46;;;;;;;5.88;1.83;;;25.70;80.90;;;;;;5114644;28;20138;-83
2023/07/16 05:31:13;;;;;;;4.85;1.80;;;25.80;81.00;;;;;;5095577;28;20093;-83
2023/07/16 05:33:38;;;;;;;9.88;1.88;;;25.80;80.50;;;;;;5114420;28;20031;-84
2023/07/16 05:36:04;;;;;;;3.88;1.73;;;25.80;81.10;;;;;;5114765;28;20028;-85
2023/07/16 05:38:30;;;;;;;6.63;1.70;;;25.80;80.20;;;;;;5114410;28;20029;-84
2023/07/16 05:41:03;;;;;;;4.60;1.90;;;25.70;81.10;;;;;;5114638;28;20062;-84
2023/07/16 05:43:29;;;;;;;3.92;1.70;;;25.70;81.60;;;;;;5095924;28;20051;-82
2023/07/16 05:45:55;;;;;;;2.22;1.45;;;25.90;81.60;;;;;;5096296;28;20059;-82
2023/07/16 05:48:20;;;;;;;4.00;1.60;;;25.90;80.90;;;;;;5095831;28;20024;-84
2023/07/16 05:50:46;;;;;;;2.85;1.80;;;26.00;81.30;;;;;;5114233;28;20040;-83
2023/07/16 05:53:13;;;;;;;7.13;1.95;;;26.20;80.10;;;;;;5096102;28;20028;-84
2023/07/16 05:55:42;;;;;;;3.70;2.03;;;26.40;79.30;;;;;;5114091;28;20027;-84
2023/07/16 05:58:08;;;;;;;4.93;2.13;;;26.60;79.10;;;;;;5114304;28;20020;-84
2023/07/16 06:00:34;;;;;;;2.40;1.50;;;27.00;78.40;;;;;;5096078;28;20050;-84
2023/07/16 06:03:01;;;;;;;3.88;2.00;;;27.90;77.50;;;;;;5114015;28;20419;-85
2023/07/16 06:05:30;;;;;;;5.95;1.92;;;29.30;72.00;;;;;;5114006;28;20102;-85
2023/07/16 06:07:56;;;;;;;2.90;1.90;;;30.40;68.80;;;;;;5095749;28;20023;-85
2023/07/16 06:10:22;;;;;;;3.42;1.70;;;31.70;64.30;;;;;;5113769;28;20035;-84
2023/07/16 06:12:47;;;;;;;7.22;1.88;;;32.80;61.10;;;;;;5095533;28;20169;-83
2023/07/16 06:15:13;;;;;;;2.45;1.38;;;34.00;56.80;;;;;;5113528;28;20055;-85
2023/07/16 06:17:38;;;;;;;8.80;1.63;;;34.60;54.50;;;;;;5095629;28;20031;-84
2023/07/16 06:20:06;;;;;;;6.35;1.80;;;35.60;50.60;;;;;;5094964;28;20491;-84
2023/07/16 06:22:31;;;;;;;8.65;2.08;;;36.30;48.80;;;;;;5094835;28;20430;-83
2023/07/16 06:24:57;;;;;;;3.10;1.60;;;36.90;47.80;;;;;;5112782;28;20081;-83
2023/07/16 06:27:23;;;;;;;3.17;1.90;;;37.10;46.30;;;;;;5113177;28;20028;-83
2023/07/16 06:29:48;;;;;;;3.55;2.00;;;37.30;45.70;;;;;;5113199;28;20043;-84
2023/07/16 06:32:14;;;;;;;4.10;1.90;;;37.50;44.70;;;;;;5113066;28;20028;-84
2023/07/16 06:34:40;;;;;;;4.40;1.77;;;37.50;44.20;;;;;;5112782;28;20035;-85
2023/07/16 06:37:06;;;;;;;5.95;1.85;;;37.60;43.70;;;;;;5095050;28;20023;-85
2023/07/16 06:39:32;;;;;;;4.10;1.80;;;38.10;42.40;;;;;;5112954;28;20533;-85
2023/07/16 06:41:57;;;;;;;7.40;2.10;;;38.30;43.00;;;;;;5113169;28;20024;-85
2023/07/16 06:44:23;;;;;;;6.55;2.00;;;38.60;42.60;;;;;;5094715;28;20554;-84
2023/07/16 06:46:49;;;;;;;3.55;2.35;;;38.70;41.00;;;;;;5094563;28;20023;-83
2023/07/16 06:49:15;;;;;;;5.43;2.17;;;39.30;40.10;;;;;;5094403;28;20114;-85
2023/07/16 06:51:40;;;;;;;7.93;1.80;;;39.70;40.00;;;;;;5094574;28;20523;-84
2023/07/16 06:54:07;;;;;;;5.68;1.70;;;40.00;39.60;;;;;;5094716;28;20023;-85
2023/07/16 06:56:32;;;;;;;7.70;1.90;;;39.40;38.90;;;;;;5112567;28;20023;-85
2023/07/16 06:58:58;;;;;;;3.15;2.25;;;39.20;39.90;;;;;;5094475;28;20032;-85
2023/07/16 07:01:24;;;;;;;10.88;2.20;;;39.00;39.70;;;;;;5112821;28;20091;-84
2023/07/16 07:03:49;;;;;;;4.10;1.98;;;39.10;40.00;;;;;;5094520;28;20023;-84
2023/07/16 07:06:15;;;;;;;5.53;1.88;;;39.50;39.60;;;;;;5093504;28;20028;-85
2023/07/16 07:08:41;;;;;;;4.10;1.83;;;39.40;40.40;;;;;;5111942;28;20031;-85
2023/07/16 07:11:06;;;;;;;3.88;1.85;;;39.50;39.20;;;;;;5093973;28;20034;-84
2023/07/16 07:13:32;;;;;;;8.02;2.65;;;39.50;39.70;;;;;;5094301;28;20031;-85
2023/07/16 07:15:57;;;;;;;3.38;1.65;;;39.30;39.40;;;;;;5094132;28;20026;-84
2023/07/16 07:18:23;;;;;;;4.97;1.67;;;39.10;39.30;;;;;;5094111;28;20070;-85
2023/07/16 07:20:49;;;;;;;6.50;2.00;;;39.30;39.80;;;;;;5094275;28;20092;-83
2023/07/16 07:23:15;;;;;;;3.55;1.77;;;39.40;38.30;;;;;;5094170;28;20027;-84
2023/07/16 07:25:41;;;;;;;3.50;1.95;;;39.40;39.10;;;;;;5112300;28;20027;-84
2023/07/16 07:28:07;;;;;;;5.82;1.70;;;39.10;38.70;;;;;;5112090;28;20028;-84
2023/07/16 07:30:32;;;;;;;7.07;1.88;;;39.00;40.20;;;;;;5093977;28;20101;-85
2023/07/16 07:32:58;;;;;;;3.50;1.50;;;39.20;37.10;;;;;;5093492;28;20026;-85
2023/07/16 07:35:24;;;;;;;4.63;1.90;;;39.50;37.80;;;;;;5111566;28;20643;-85
2023/07/16 07:37:49;;;;;;;7.72;1.90;;;39.70;37.30;;;;;;5112116;28;20059;-84
2023/07/16 07:40:15;;;;;;;7.90;1.95;;;39.50;36.40;;;;;;5094016;28;20020;-84
2023/07/16 07:42:41;;;;;;;5.60;1.73;;;39.70;37.00;;;;;;5112164;28;20450;-83
2023/07/16 07:45:07;;;;;;;7.72;1.92;;;39.90;36.60;;;;;;5111630;28;20062;-85
2023/07/16 07:47:33;;;;;;;4.93;2.50;;;40.10;36.40;;;;;;5111611;28;20507;-85
2023/07/16 07:49:58;;;;;;;2.90;1.67;;;40.10;37.30;;;;;;5111626;28;20038;-85
2023/07/16 07:52:24;;;;;;;6.75;1.98;;;40.20;36.00;;;;;;5111595;28;20376;-84
2023/07/16 07:54:50;;;;;;;8.13;2.03;;;40.20;37.00;;;;;;5093958;28;20609;-85
2023/07/16 07:57:15;;;;;;;4.20;1.95;;;40.20;36.60;;;;;;5111933;28;20019;-84
2023/07/16 07:59:41;;;;;;;4.00;1.80;;;40.20;35.70;;;;;;5093473;28;20122;-84
2023/07/16 08:02:07;;;;;;;5.47;1.67;;;40.10;36.50;;;;;;5093917;28;20485;-85
2023/07/16 08:04:32;;;;;;;3.70;1.52;;;40.10;36.60;;;;;;5093332;28;20027;-83
2023/07/16 08:06:58;;;;;;;8.93;1.60;;;39.90;36.20;;;;;;5111944;28;20020;-85
2023/07/16 08:09:26;;;;;;;5.20;1.63;;;39.70;36.90;;;;;;5092867;28;20023;-83
2023/07/16 08:11:51;;;;;;;6.20;1.70;;;40.00;38.10;;;;;;5110935;28;20523;-85
2023/07/16 08:14:17;;;;;;;3.00;1.60;;;40.60;36.00;;;;;;5111412;28;20019;-85
2023/07/16 08:16:42;;;;;;;4.55;1.65;;;40.60;35.30;;;;;;5111774;28;20031;-85
2023/07/16 08:19:09;;;;;;;7.40;2.38;;;40.40;36.10;;;;;;5111151;28;20023;-85
2023/07/16 08:21:35;;;;;;;3.03;1.63;;;40.40;36.70;;;;;;5092626;28;20384;-82
2023/07/16 08:24:01;;;;;;;5.15;1.83;;;40.50;36.00;;;;;;5110987;28;20099;-84
2023/07/16 08:26:27;;;;;;;8.30;1.40;;;40.70;35.70;;;;;;5092892;28;20473;-84
2023/07/16 08:28:52;;;;;;;8.75;2.35;;;40.70;35.40;;;;;;5111241;28;20024;-85
2023/07/16 08:31:18;;;;;;;4.25;1.80;;;40.90;36.00;;;;;;5092565;28;20138;-85
2023/07/16 08:33:44;;;;;;;6.05;2.10;;;41.30;34.60;;;;;;5092253;28;20069;-84
2023/07/16 08:36:10;;;;;;;3.67;1.73;;;40.90;34.50;;;;;;5093241;28;20030;-84
2023/07/16 08:38:35;;;;;;;3.47;1.70;;;40.50;34.70;;;;;;5111018;28;20047;-85
2023/07/16 08:41:01;;;;;;;3.78;1.65;;;40.30;35.50;;;;;;5093145;28;20031;-84
2023/07/16 08:43:29;;;;;;;3.50;1.73;;;40.40;35.90;;;;;;5110863;28;20024;-84
2023/07/16 08:45:56;;;;;;;17.33;2.05;;;40.60;35.90;;;;;;5114322;28;20091;-83
2023/07/16 08:48:22;;;;;;;5.13;2.03;;;40.60;35.20;;;;;;5096980;28;20020;-84
2023/07/16 08:50:49;;;;;;;4.35;1.75;;;40.60;36.80;;;;;;5114886;28;20139;-84
2023/07/16 08:53:16;;;;;;;6.03;2.35;;;40.90;35.80;;;;;;5115006;28;20023;-85
2023/07/16 08:55:47;;;;;;;6.95;1.92;;;41.00;34.60;;;;;;5096236;28;20046;-85
2023/07/16 08:58:14;;;;;;;4.68;1.73;;;40.70;35.20;;;;;;5096204;28;20028;-84
2023/07/16 09:00:44;;;;;;;8.55;1.90;;;40.50;35.20;;;;;;5096924;28;20027;-84
2023/07/16 09:03:16;;;;;;;5.55;1.92;;;40.40;36.20;;;;;;5096391;28;20049;-85
2023/07/16 09:05:42;;;;;;;3.95;1.90;;;40.50;36.10;;;;;;5114680;28;20490;-83
2023/07/16 09:08:08;;;;;;;16.85;1.73;;;40.30;36.70;;;;;;5114301;28;20020;-85
2023/07/16 09:10:34;;;;;;;6.78;1.90;;;40.40;36.10;;;;;;5114875;28;20042;-84
2023/07/16 09:13:00;;;;;;;7.72;1.90;;;40.30;35.70;;;;;;5114516;28;20012;-84
2023/07/16 09:15:28;;;;;;;6.38;1.85;;;40.00;35.70;;;;;;5096445;28;20081;-85
2023/07/16 09:17:54;;;;;;;3.13;1.60;;;39.70;36.20;;;;;;5114819;28;20099;-85
2023/07/16 09:20:23;;;;;;;5.30;1.88;;;39.40;37.50;;;;;;5114447;28;20653;-85
2023/07/16 09:22:49;;;;;;;5.38;2.13;;;39.40;37.90;;;;;;5114141;28;20015;-83
2023/07/16 09:25:15;;;;;;;9.43;3.25;;;39.40;37.80;;;;;;5096230;28;20475;-83
2023/07/16 09:27:40;;;;;;;2.92;1.75;;;39.50;35.90;;;;;;5096214;28;20055;-85
2023/07/16 09:30:14;;;;;;;3.65;1.60;;;38.90;35.70;;;;;;5113724;28;20109;-85
2023/07/16 09:32:39;;;;;;;6.75;1.80;;;39.30;36.90;;;;;;5095588;28;20057;-85
2023/07/16 09:35:16;;;;;;;4.78;1.75;;;39.70;37.70;;;;;;5113721;28;20028;-85
2023/07/16 09:37:42;;;;;;;8.25;1.85;;;40.00;36.70;;;;;;5096016;28;20404;-85
2023/07/16 09:40:10;;;;;;;6.18;2.00;;;40.10;38.10;;;;;;5114183;28;20020;-85
2023/07/16 09:42:41;;;;;;;2.45;2.03;;;40.30;36.50;;;;;;5114477;28;20016;-85
2023/07/16 09:45:09;;;;;;;5.13;2.20;;;40.60;36.60;;;;;;5096017;28;20024;-85
2023/07/16 09:47:37;;;;;;;6.13;2.20;;;40.50;35.60;;;;;;5096030;28;20066;-85
2023/07/16 09:50:06;;;;;;;7.00;2.03;;;40.20;37.00;;;;;;5095016;28;20050;-84
2023/07/16 09:52:33;;;;;;;9.05;2.17;;;40.20;38.00;;;;;;5113350;28;20039;-85
2023/07/16 09:55:02;;;;;;;10.45;2.28;;;40.60;38.20;;;;;;5112928;28;20047;-85
2023/07/16 09:57:30;;;;;;;5.18;2.20;;;40.90;36.40;;;;;;5095493;28;20503;-84
2023/07/16 09:59:58;;;;;;;3.78;2.40;;;40.90;36.80;;;;;;5113124;28;20054;-84
2023/07/16 10:02:24;;;;;;;3.25;2.50;;;41.10;36.40;;;;;;5094964;28;20015;-83
2023/07/16 10:04:50;;;;;;;11.63;2.75;;;40.90;36.40;;;;;;5095374;28;20051;-84
2023/07/16 10:07:23;;;;;;;5.18;2.63;;;40.50;35.70;;;;;;5095482;28;20072;-84
2023/07/16 10:09:58;;;;;;;3.85;2.47;;;39.80;37.60;;;;;;5095550;28;20051;-84
2023/07/16 10:12:26;;;;;;;9.23;2.63;;;39.40;38.70;;;;;;5095403;28;20518;-84
2023/07/16 10:14:58;;;;;;;8.52;2.70;;;38.90;39.00;;;;;;5113672;28;20020;-83
2023/07/16 10:17:26;;;;;;;4.75;2.15;;;38.40;39.50;;;;;;5113560;28;20031;-85
2023/07/16 10:20:00;;;;;;;9.50;2.95;;;37.80;40.60;;;;;;5113386;28;20027;-83
2023/07/16 10:22:35;;;;;;;8.07;2.85;;;37.20;41.30;;;;;;5112716;28;20088;-84
2023/07/16 10:25:02;;;;;;;;;;;36.50;43.10;;;;;;5095447;28;20024;-84
2023/07/16 10:27:32;;;;;;;5.55;3.22;;;36.10;43.20;;;;;;5112758;28;20013;-84
2023/07/16 10:29:59;;;;;;;6.90;3.60;;;35.80;43.80;;;;;;5095131;28;20080;-85
2023/07/16 10:32:29;;;;;;;9.82;3.03;;;35.70;44.50;;;;;;5094594;28;20038;-84
2023/07/16 10:34:55;;;;;;;5.63;2.85;;;35.60;45.50;;;;;;5112986;28;20038;-84
2023/07/16 10:37:21;;;;;;;6.93;3.30;;;35.50;45.80;;;;;;5095031;28;20048;-84
2023/07/16 10:39:48;;;;;;;7.95;3.00;;;35.40;47.10;;;;;;5094789;28;20056;-84
2023/07/16 10:42:16;;;;;;;8.48;3.30;;;35.40;46.20;;;;;;5094572;28;20023;-84
2023/07/16 10:44:42;;;;;;;7.35;3.40;;;35.30;46.90;;;;;;5095101;28;20024;-84
2023/07/16 10:47:10;;;;;;;9.35;3.75;;;35.30;46.90;;;;;;5094257;28;20034;-84
2023/07/16 10:49:35;;;;;;;6.65;3.08;;;35.10;46.40;;;;;;5113070;28;20023;-84
2023/07/16 10:52:02;;;;;;;7.72;3.08;;;34.80;46.60;;;;;;5112328;28;20148;-82
2023/07/16 10:54:28;;;;;;;4.28;3.13;;;34.80;47.90;;;;;;5093901;28;20030;-85
2023/07/16 10:56:53;;;;;;;5.22;3.10;;;34.90;48.00;;;;;;5094730;28;20020;-84
2023/07/16 10:59:19;;;;;;;8.35;3.42;;;34.80;47.60;;;;;;5112958;28;20020;-83
2023/07/16 11:01:46;;;;;;;8.45;2.90;;;34.80;47.50;;;;;;5093334;28;20035;-83
2023/07/16 11:04:11;;;;;;;4.95;3.70;;;34.40;47.60;;;;;;5111990;28;20027;-83
2023/07/16 11:06:37;;;;;;;6.18;3.78;;;34.20;47.90;;;;;;5094056;28;20023;-84
2023/07/16 11:09:07;;;;;;;12.68;4.07;;;33.80;48.10;;;;;;5112107;28;20019;-83
2023/07/16 11:11:33;;;;;;;11.55;4.32;;;33.80;48.70;;;;;;5093991;28;20043;-84
2023/07/16 11:13:58;;;;;;;7.65;3.70;;;33.80;49.00;;;;;;5094295;28;20020;-84
2023/07/16 11:16:24;;;;;;;5.95;3.53;;;33.90;48.90;;;;;;5112714;28;20479;-83
2023/07/16 11:18:51;;;;;;;9.15;4.03;;;34.00;49.00;;;;;;5094214;28;20024;-84
2023/07/16 11:21:19;;;;;;;10.48;3.80;;;34.20;48.60;;;;;;5112456;28;20038;-83
2023/07/16 11:23:45;;;;;;;5.95;3.53;;;34.20;47.80;;;;;;5112017;28;20024;-84
2023/07/16 11:26:11;;;;;;;6.97;4.20;;;34.40;48.60;;;;;;5112378;28;20032;-84
2023/07/16 11:28:41;;;;;;;9.20;3.72;;;34.20;47.10;;;;;;5112484;28;20023;-83
2023/07/16 11:31:14;;;;;;;6.80;3.67;;;34.10;47.20;;;;;;5094828;28;20067;-85
2023/07/16 11:33:45;;;;;;;5.63;3.90;;;34.00;48.10;;;;;;5094516;28;20034;-85
2023/07/16 11:36:11;;;;;;;5.20;3.88;;;33.90;47.00;;;;;;5093470;28;20032;-83
2023/07/16 11:38:37;;;;;;;5.25;3.63;;;33.80;48.60;;;;;;5111598;28;20031;-84
2023/07/16 11:41:03;;;;;;;7.68;3.92;;;34.00;48.70;;;;;;5112067;28;20035;-84
2023/07/16 11:43:29;;;;;;;3.50;2.90;;;34.20;48.40;;;;;;5112306;28;20031;-83
2023/07/16 11:45:54;;;;;;;7.57;3.70;;;34.50;48.80;;;;;;5094192;28;20074;-83
2023/07/16 11:48:20;;;;;;;7.00;3.38;;;34.80;48.60;;;;;;5094131;28;20028;-84
2023/07/16 11:50:45;;;;;;;5.40;3.70;;;34.80;48.60;;;;;;5112371;28;20036;-85
2023/07/16 11:53:11;;;;;;;5.85;3.50;;;34.90;48.20;;;;;;5111841;28;20020;-84
2023/07/16 11:55:37;;;;;;;11.77;4.13;;;34.90;48.80;;;;;;5093715;28;20031;-85
2023/07/16 11:58:02;;;;;;;6.97;3.15;;;35.00;46.90;;;;;;5112434;28;20480;-84
2023/07/16 12:00:28;;;;;;;7.47;3.67;;;35.10;46.50;;;;;;5112246;28;20511;-84
2023/07/16 12:02:54;;;;;;;7.80;3.63;;;34.90;45.40;;;;;;5093203;28;20024;-84
2023/07/16 12:05:21;;;;;;;11.07;4.18;;;34.90;47.30;;;;;;5112278;28;20024;-84
2023/07/16 12:07:47;;;;;;;5.88;3.45;;;35.00;47.40;;;;;;5093887;28;20035;-84
2023/07/16 12:10:12;;;;;;;6.93;3.40;;;35.00;47.10;;;;;;5111206;28;20039;-85
2023/07/16 12:12:38;;;;;;;9.07;3.55;;;35.10;46.90;;;;;;5112445;28;20031;-85
2023/07/16 12:15:08;;;;;;;5.57;3.97;;;35.10;46.80;;;;;;5112109;28;20023;-84
2023/07/16 12:17:34;;;;;;;12.00;3.65;;;35.00;47.70;;;;;;5112377;28;20093;-84
2023/07/16 12:20:00;;;;;;;5.82;3.58;;;35.10;47.70;;;;;;5114575;28;20491;-84
2023/07/16 12:22:27;;;;;;;8.35;3.47;;;35.10;47.40;;;;;;5116015;28;20019;-85
2023/07/16 12:24:53;;;;;;;12.25;3.67;;;35.10;47.20;;;;;;5115902;28;20028;-85
2023/07/16 12:27:18;;;;;;;12.30;4.22;;;35.10;46.90;;;;;;5116164;28;20030;-85
2023/07/16 12:29:44;;;;;;;5.00;3.38;;;34.90;47.30;;;;;;5097657;28;20138;-85
2023/07/16 12:32:10;;;;;;;5.28;3.83;;;34.70;48.40;;;;;;5115830;28;20039;-84
2023/07/16 12:34:36;;;;;;;7.78;3.65;;;34.50;49.40;;;;;;5116251;28;20024;-85
2023/07/16 12:37:02;;;;;;;7.65;4.07;;;34.30;49.40;;;;;;5097533;28;20483;-85
2023/07/16 12:39:28;;;;;;;5.50;3.72;;;34.30;50.30;;;;;;5115156;28;20023;-84
2023/07/16 12:41:54;;;;;;;5.93;3.63;;;34.40;50.30;;;;;;5096520;28;20020;-85
2023/07/16 12:44:19;;;;;;;8.57;4.38;;;34.60;50.50;;;;;;5115458;28;20031;-84